KMMV

Mc Minnville Municipal Airport

Mc Minnville, Oregon, USA
METAR KMMV 211545Z AUTO 24005KT 1/4SM FG BKN002 OVC048 01/01 A3024 RMK AO2 T00110011
Observed Flight Rules
Jan-21 @ 15:45 UTC (16 minutes ago) Instrument Flight Rules
Wind Visibility Clouds Conditions
240° at 5 knots 1/4 miles
  • Broken at 200' AGL
  • Overcast at 4,800' AGL
  • Fog
Temperatures Readings
Current 1°C / 34°F
Dewpoint 1°C / 34°F
Humidity 100%
Altimeter 30.24" Hg
Pressure 1024.02 hPa
Elevation 48
METAR KMMV 211545Z AUTO 24005KT 1/4SM FG BKN002 OVC048 01/01 A3024 RMK AO2 T00110011
Observed Flight Rules
Jan-21 @ 15:45 UTC
(16 minutes ago)
LIFR
Wind Visibility
240° at 5 knots 1/4 miles
Clouds
  • Broken at 200' AGL
  • Overcast at 4,800' AGL
Conditions
  • Fog
Temperature Dewpoint
1°C / 34°F 1°C / 34°F
Humidity Altimeter Pressure
100% 30.24" Hg 1024.02 hPa